메인 페이지
METAR-TAF:

METAR-TAF

공항 :

양양국제공항

양양군, 대한민국

위도: 38-03-41N, 경도: 128-40-09E, 고도: 73m

현재 날씨관측

예보는 57분 전, 08:00시(UTC)에 발표되었습니다.
5kt
온도 15°C
습도 72%
기압 1019 hPa
시정 10km 이상
1500m 미만 상공 구름 및 적란운 없음

METAR: RKNY 210800Z 10005KT CAVOK 15/10 Q1019 NOSIG

시각: 17:57 (08:57 UTC)

예보

예보는 3 시간 57분 전, 05:00시(UTC)에 발표되었습니다.
예보 대상 시간: 21일 06시부터 22일 12시까지 (UTC)
7kt
시정 10km 이상
1500m 미만 상공 구름 및 적란운 없음
전환 중
21일 10시부터 21일 11시까지 (UTC)
서남서5kt
전환 중
21일 22시부터 21일 23시까지 (UTC)
5kt
시정 10km 이상
고도 3000ft 상공 구름 보통
고도 15000ft 상공 구름 많음
전환 중
22일 09시부터 22일 10시까지 (UTC)
5kt
전환 중
22일 11시부터 22일 12시까지 (UTC)
시정: 4200m
고도 1000ft 상공 구름 조금
고도 3000ft 상공 구름 많음
고도 10000ft 상공 흐림
약한비

TAF: RKNY 210500Z 2106/2212 09007KT CAVOK TN09/2120Z TX18/2206Z BECMG 2110/2111 25005KT BECMG 2122/2123 08005KT 9999 SCT030 BKN150 BECMG 2209/2210 01005KT BECMG 2211/2212 4200 -RA FEW010 BKN030 OVC100

4,000개 이상의 공항 관측 자료 및 예보 (METAR 및 TAF 보고).

지도상에서 검색 가능한 기상관측소가 노란 점과 빨간 점으로 표시되어 있습니다.

기상관측소 명을 보려면 표시 위로 마우스를 이동하세요.

날씨 관측과 예보를 보려면 클릭하세요.

지도 변경 : 확대하려면 엑스 표시가 있는 녹색 버튼, 축소하려면 빼기 표시가 있는 녹색 버튼, 다음 페이지의 지도를 보려면 녹색 화살표를 클릭하세요.


METAR-TAF: